createdAt,value
2023-02-21T00:01:00.135Z,58.73
2023-02-21T00:03:45.666Z,53.10
2023-02-21T00:06:31.069Z,61.43
2023-02-21T00:09:16.620Z,54.20
2023-02-21T00:12:02.625Z,55.60
2023-02-21T00:14:48.058Z,50.03
2023-02-21T00:17:35.930Z,58.07
2023-02-21T00:23:07.399Z,57.37
2023-02-21T00:25:53.209Z,71.20
2023-02-21T00:28:38.473Z,69.57
2023-02-21T00:31:24.609Z,70.47
2023-02-21T00:34:10.403Z,63.07
2023-02-21T00:36:55.970Z,55.53
2023-02-21T00:39:42.905Z,57.37
2023-02-21T00:42:28.478Z,63.87
2023-02-21T00:45:14.165Z,67.67
2023-02-21T00:47:59.915Z,67.37
2023-02-21T00:50:45.348Z,67.60
2023-02-21T00:53:31.049Z,57.83
2023-02-21T00:56:16.761Z,61.70
2023-02-21T00:59:02.685Z,70.63
2023-02-21T01:01:48.854Z,58.37
2023-02-21T01:04:36.038Z,63.50
2023-02-21T01:07:21.425Z,50.20
2023-02-21T01:10:06.839Z,43.70
2023-02-21T01:12:52.273Z,46.53
2023-02-21T01:15:37.787Z,59.83
2023-02-21T01:18:23.762Z,75.83
2023-02-21T01:21:09.177Z,88.93
2023-02-21T01:23:54.637Z,75.87
2023-02-21T01:26:40.163Z,61.73
2023-02-21T01:29:25.881Z,80.40
2023-02-21T01:32:11.878Z,71.70
2023-02-21T01:34:58.352Z,67.07
2023-02-21T01:37:43.979Z,67.73
2023-02-21T01:40:33.923Z,64.00
2023-02-21T01:43:20.953Z,56.10
2023-02-21T01:46:08.918Z,68.20
2023-02-21T01:48:55.460Z,64.57
2023-02-21T01:51:46.448Z,52.33
2023-02-21T01:54:32.556Z,44.43
2023-02-21T01:57:21.173Z,35.57
2023-02-21T02:00:08.314Z,29.23
2023-02-21T02:03:05.471Z,31.77
2023-02-21T02:05:51.853Z,46.97
2023-02-21T02:08:42.040Z,35.30
2023-02-21T02:11:50.920Z,33.43
2023-02-21T02:17:03.376Z,36.47
2023-02-21T02:20:01.165Z,31.10
2023-02-21T02:22:40.098Z,27.25
2023-02-21T02:25:47.098Z,34.77
2023-02-21T02:28:43.033Z,30.60
2023-02-21T02:31:38.858Z,25.60
2023-02-21T02:34:34.663Z,27.43
2023-02-21T02:37:39.087Z,29.47
2023-02-21T02:40:41.392Z,27.60
2023-02-21T02:43:17.416Z,30.47
2023-02-21T02:45:52.134Z,27.80
2023-02-21T02:48:56.171Z,24.02
2023-02-21T02:51:23.495Z,25.43
2023-02-21T02:53:50.767Z,26.73
2023-02-21T02:56:18.005Z,25.70
2023-02-21T02:58:58.366Z,23.40
2023-02-21T03:01:43.431Z,34.10
2023-02-21T03:04:42.648Z,29.00
2023-02-21T03:07:36.543Z,25.43
2023-02-21T03:10:19.451Z,29.90
2023-02-21T03:13:03.358Z,24.93
2023-02-21T03:15:40.669Z,26.60
2023-02-21T03:18:16.913Z,29.03
2023-02-21T03:20:47.230Z,28.10
2023-02-21T03:23:18.418Z,26.17
2023-02-21T03:25:47.380Z,24.17
2023-02-21T03:28:15.109Z,28.93
2023-02-21T03:30:46.895Z,26.53
2023-02-21T03:33:13.932Z,39.30
2023-02-21T03:35:41.769Z,28.97
2023-02-21T03:38:10.827Z,29.53
2023-02-21T03:40:38.066Z,26.13
2023-02-21T03:43:09.594Z,37.97
2023-02-21T03:45:50.419Z,37.23
2023-02-21T03:48:31.083Z,33.03
2023-02-21T03:51:04.749Z,35.73
2023-02-21T03:53:36.120Z,33.37
2023-02-21T03:56:04.528Z,33.80
2023-02-21T03:58:47.452Z,54.43
2023-02-21T04:01:16.058Z,40.90
2023-02-21T04:03:43.405Z,39.23
2023-02-21T04:06:10.442Z,38.00
2023-02-21T04:08:37.871Z,44.83
2023-02-21T04:11:05.075Z,47.33
2023-02-21T04:13:34.664Z,52.60
2023-02-21T04:16:02.976Z,39.30
2023-02-21T04:18:31.366Z,42.13
2023-02-21T04:21:00.724Z,46.83
2023-02-21T04:23:27.769Z,42.30
2023-02-21T04:25:55.179Z,39.07
2023-02-21T04:28:27.861Z,46.00
2023-02-21T04:30:54.875Z,43.57
2023-02-21T04:33:22.777Z,39.87
2023-02-21T04:35:51.159Z,37.33
2023-02-21T04:38:39.812Z,36.37
2023-02-21T04:41:07.177Z,36.30
2023-02-21T04:43:34.894Z,41.97
2023-02-21T04:46:02.026Z,41.57
2023-02-21T04:48:29.436Z,32.20
2023-02-21T04:51:01.536Z,47.17
2023-02-21T04:53:33.908Z,44.30
2023-02-21T04:56:00.929Z,42.07
2023-02-21T04:58:31.193Z,34.07
2023-02-21T05:01:03.501Z,35.13
2023-02-21T05:03:30.618Z,40.33
2023-02-21T05:05:57.725Z,38.60
2023-02-21T05:08:27.912Z,35.93
2023-02-21T05:10:55.885Z,31.40
2023-02-21T05:13:23.169Z,28.97
2023-02-21T05:15:50.454Z,31.07
2023-02-21T05:18:22.871Z,30.13
2023-02-21T05:20:50.556Z,31.03
2023-02-21T05:23:19.300Z,28.33
2023-02-21T05:25:46.297Z,32.37
2023-02-21T05:28:13.490Z,29.90
2023-02-21T05:30:40.686Z,54.50
2023-02-21T05:33:07.857Z,36.47
2023-02-21T05:35:34.850Z,34.47
2023-02-21T05:38:01.885Z,34.93
2023-02-21T05:40:28.840Z,33.03
2023-02-21T05:42:55.968Z,31.93
2023-02-21T05:45:22.940Z,38.40
2023-02-21T05:47:49.949Z,30.97
2023-02-21T05:50:17.091Z,42.43
2023-02-21T05:52:44.117Z,38.90
2023-02-21T05:55:11.889Z,37.77
2023-02-21T05:57:39.885Z,41.13
2023-02-21T06:00:07.580Z,55.13
2023-02-21T06:02:39.124Z,55.40
2023-02-21T06:05:06.877Z,60.53
2023-02-21T06:07:33.897Z,58.40
2023-02-21T06:10:01.686Z,56.70
2023-02-21T06:12:28.666Z,87.07
2023-02-21T06:14:56.018Z,132.77
2023-02-21T06:17:23.630Z,120.07
2023-02-21T06:19:50.865Z,74.63
2023-02-21T06:22:17.876Z,53.07
2023-02-21T06:24:45.720Z,65.20
2023-02-21T06:27:12.726Z,62.97
2023-02-21T06:29:39.972Z,69.47
2023-02-21T06:32:07.206Z,56.83
2023-02-21T06:34:34.595Z,65.50
2023-02-21T06:37:01.816Z,59.90
2023-02-21T06:39:29.630Z,63.27
2023-02-21T06:41:56.639Z,69.10
2023-02-21T06:44:23.946Z,68.93
2023-02-21T06:46:51.169Z,62.47
2023-02-21T06:49:18.568Z,65.47
2023-02-21T06:51:45.613Z,67.03
2023-02-21T06:54:13.988Z,60.27
2023-02-21T06:56:41.043Z,60.00
2023-02-21T06:59:09.105Z,74.87
2023-02-21T07:01:36.161Z,51.67
2023-02-21T07:04:03.406Z,61.03
2023-02-21T07:06:31.927Z,48.60
2023-02-21T07:09:02.441Z,49.87
2023-02-21T07:11:32.343Z,52.10
2023-02-21T07:13:59.673Z,52.13
2023-02-21T07:16:27.254Z,49.47
2023-02-21T07:18:54.563Z,62.57
2023-02-21T07:21:22.214Z,48.97
2023-02-21T07:23:52.392Z,52.77
2023-02-21T07:26:19.615Z,49.83
2023-02-21T07:28:50.012Z,49.77
2023-02-21T07:31:19.538Z,49.87
2023-02-21T07:33:47.104Z,51.33
2023-02-21T07:36:14.536Z,47.00
2023-02-21T07:38:41.492Z,47.40
2023-02-21T07:41:09.008Z,42.57
2023-02-21T07:43:36.052Z,47.20
2023-02-21T07:46:03.697Z,49.60
2023-02-21T07:48:30.866Z,51.70
2023-02-21T07:50:58.106Z,42.30
2023-02-21T07:53:25.258Z,46.47
2023-02-21T07:55:52.653Z,42.80
2023-02-21T07:58:21.367Z,41.97
2023-02-21T08:00:49.362Z,47.97
2023-02-21T08:03:16.352Z,53.13
2023-02-21T08:05:44.362Z,54.63
2023-02-21T08:08:11.636Z,51.28
2023-02-21T08:10:39.437Z,51.03
2023-02-21T08:13:06.639Z,50.23
2023-02-21T08:15:34.405Z,44.67
2023-02-21T08:18:01.588Z,55.70
2023-02-21T08:20:29.330Z,58.40
2023-02-21T08:22:56.529Z,55.57
2023-02-21T08:25:23.772Z,55.20
2023-02-21T08:27:53.869Z,65.60
2023-02-21T08:30:22.574Z,50.87
2023-02-21T08:32:51.447Z,59.08
2023-02-21T08:35:20.120Z,74.05
2023-02-21T08:37:48.994Z,75.18
2023-02-21T08:40:19.957Z,68.47
2023-02-21T08:42:52.890Z,74.50
2023-02-21T08:45:22.409Z,66.57
2023-02-21T08:47:50.039Z,59.33
2023-02-21T08:50:19.817Z,56.78
2023-02-21T08:52:48.183Z,50.38
2023-02-21T08:55:16.430Z,53.28
2023-02-21T08:57:43.696Z,49.88
2023-02-21T09:00:13.823Z,53.05
2023-02-21T09:02:40.875Z,52.70
2023-02-21T09:05:28.883Z,51.58
2023-02-21T09:08:02.194Z,55.22
2023-02-21T09:10:34.578Z,55.15
2023-02-21T09:13:02.762Z,65.82
2023-02-21T09:15:29.761Z,73.35
2023-02-21T09:17:57.349Z,60.88
2023-02-21T09:20:26.476Z,65.85
2023-02-21T09:22:54.602Z,68.82
2023-02-21T09:25:28.235Z,70.55
2023-02-21T09:27:55.913Z,70.43
2023-02-21T09:30:27.161Z,64.15
2023-02-21T09:32:55.471Z,78.53
2023-02-21T09:35:23.342Z,70.20
2023-02-21T09:37:50.438Z,73.22
2023-02-21T09:40:39.012Z,60.63
2023-02-21T09:43:12.284Z,66.47
2023-02-21T09:45:39.377Z,59.35
2023-02-21T09:48:21.773Z,61.08
2023-02-21T09:50:58.502Z,66.68
2023-02-21T09:53:32.376Z,62.88
2023-02-21T09:56:11.821Z,55.53
2023-02-21T09:58:44.342Z,57.45
2023-02-21T10:01:25.039Z,61.83
2023-02-21T10:04:15.427Z,62.75
2023-02-21T10:06:53.142Z,50.42
2023-02-21T10:09:45.115Z,57.65
2023-02-21T10:12:12.224Z,57.40
2023-02-21T10:15:00.693Z,52.90
2023-02-21T10:17:27.647Z,56.17
2023-02-21T10:20:03.064Z,51.30
2023-02-21T10:22:35.669Z,64.03
2023-02-21T10:25:37.112Z,45.05
2023-02-21T10:28:04.292Z,47.25
2023-02-21T10:30:35.700Z,40.75
2023-02-21T10:33:07.706Z,51.63
2023-02-21T10:35:36.362Z,51.90
2023-02-21T10:38:25.742Z,42.60
2023-02-21T10:41:03.986Z,37.58
2023-02-21T10:43:38.581Z,48.90
2023-02-21T10:46:31.621Z,44.65
2023-02-21T10:49:24.907Z,36.83
2023-02-21T10:52:13.666Z,57.22
2023-02-21T10:54:41.165Z,50.45
2023-02-21T10:57:13.527Z,59.05
2023-02-21T10:59:44.014Z,49.25
2023-02-21T11:02:42.217Z,51.15
2023-02-21T11:05:19.760Z,50.58
2023-02-21T11:08:35.181Z,43.15
2023-02-21T11:11:02.928Z,42.78
2023-02-21T11:13:31.110Z,48.03
2023-02-21T11:16:22.283Z,45.80
2023-02-21T11:19:06.051Z,42.70
2023-02-21T11:21:33.615Z,49.05
2023-02-21T11:24:04.650Z,47.85
2023-02-21T11:26:56.280Z,40.38
2023-02-21T11:29:27.374Z,33.60
2023-02-21T11:31:55.697Z,34.70
2023-02-21T11:34:30.132Z,31.67
2023-02-21T11:37:04.218Z,30.73
2023-02-21T11:39:34.874Z,25.52
2023-02-21T11:42:05.409Z,26.50
2023-02-21T11:44:35.906Z,28.88
2023-02-21T11:47:14.938Z,25.00
2023-02-21T11:49:51.159Z,33.20
2023-02-21T11:54:53.394Z,22.35
2023-02-21T11:57:27.021Z,18.02
2023-02-21T12:00:16.192Z,23.42
2023-02-21T12:03:07.039Z,24.67
2023-02-21T12:06:19.032Z,29.67
2023-02-21T12:09:19.141Z,25.75
2023-02-21T12:12:14.345Z,24.40
2023-02-21T12:15:12.111Z,16.58
2023-02-21T12:18:00.437Z,22.30
2023-02-21T12:20:43.857Z,21.67
2023-02-21T12:23:31.944Z,19.13
2023-02-21T12:26:21.078Z,23.45
2023-02-21T12:29:15.612Z,28.23
2023-02-21T12:31:51.364Z,19.30
2023-02-21T12:34:45.380Z,20.88
2023-02-21T12:37:26.358Z,25.63
2023-02-21T12:40:30.480Z,27.77
2023-02-21T12:43:19.239Z,28.63
2023-02-21T12:46:18.714Z,28.17
2023-02-21T12:49:07.024Z,26.15
2023-02-21T12:51:41.349Z,21.17
2023-02-21T12:54:17.569Z,18.77
2023-02-21T12:56:58.838Z,22.38
2023-02-21T12:59:36.797Z,27.35
2023-02-21T13:02:13.898Z,22.50
2023-02-21T13:05:07.842Z,25.02
2023-02-21T13:07:42.755Z,23.45
2023-02-21T13:10:20.549Z,19.33
2023-02-21T13:13:02.008Z,20.08
2023-02-21T13:15:32.690Z,25.50
2023-02-21T13:18:15.130Z,23.23
2023-02-21T13:20:52.853Z,27.30
2023-02-21T13:23:57.298Z,27.92
2023-02-21T13:26:45.753Z,22.55
2023-02-21T13:29:23.023Z,33.83
2023-02-21T13:32:17.958Z,26.08
2023-02-21T13:34:53.037Z,21.52
2023-02-21T13:37:23.974Z,16.00
2023-02-21T13:40:23.619Z,18.55
2023-02-21T13:43:01.534Z,23.63
2023-02-21T13:45:33.020Z,21.00
2023-02-21T13:48:05.862Z,20.05
2023-02-21T13:50:38.632Z,24.42
2023-02-21T13:53:08.656Z,18.73
2023-02-21T13:55:37.359Z,30.13
2023-02-21T13:58:05.475Z,22.02
2023-02-21T14:00:32.663Z,21.75
2023-02-21T14:03:09.968Z,20.02
2023-02-21T14:05:52.683Z,18.38
2023-02-21T14:08:34.142Z,19.20
2023-02-21T14:11:07.406Z,22.50
2023-02-21T14:14:06.810Z,18.15
2023-02-21T14:16:46.422Z,28.40
2023-02-21T14:19:35.978Z,25.60
2023-02-21T14:22:10.856Z,23.15
2023-02-21T14:24:42.415Z,25.38
2023-02-21T14:27:12.958Z,22.17
2023-02-21T14:29:41.296Z,21.27
2023-02-21T14:32:08.459Z,21.00
2023-02-21T14:34:50.206Z,20.02
2023-02-21T14:37:19.832Z,19.38
2023-02-21T14:39:50.057Z,19.48
2023-02-21T14:42:35.605Z,18.15
2023-02-21T14:45:11.841Z,17.25
2023-02-21T14:48:15.801Z,18.15
2023-02-21T14:51:07.115Z,18.60
2023-02-21T14:54:10.890Z,24.17
2023-02-21T14:56:57.242Z,22.60
2023-02-21T14:59:51.913Z,19.58
2023-02-21T15:02:32.131Z,20.50
2023-02-21T15:05:33.473Z,21.88
2023-02-21T15:08:17.035Z,18.05
2023-02-21T15:10:47.198Z,21.23
2023-02-21T15:13:27.134Z,22.75
2023-02-21T15:15:58.738Z,23.73
2023-02-21T15:18:32.135Z,24.75
2023-02-21T15:21:14.503Z,18.17
2023-02-21T15:23:48.183Z,25.40
2023-02-21T15:26:22.180Z,17.60
2023-02-21T15:29:08.826Z,21.27
2023-02-21T15:31:57.444Z,37.95
2023-02-21T15:34:28.605Z,30.50
2023-02-21T15:37:03.119Z,21.08
2023-02-21T15:39:35.553Z,24.00
2023-02-21T15:42:07.036Z,25.52
2023-02-21T15:44:46.540Z,29.80
2023-02-21T15:47:16.051Z,32.15
2023-02-21T15:50:04.614Z,30.25
2023-02-21T15:52:51.720Z,22.58
2023-02-21T15:55:18.706Z,43.13
2023-02-21T15:58:24.986Z,33.17
2023-02-21T16:01:07.487Z,32.17
2023-02-21T16:03:36.468Z,26.25
2023-02-21T16:06:21.456Z,31.50
2023-02-21T16:08:51.491Z,33.85
2023-02-21T16:11:20.047Z,24.20
2023-02-21T16:13:47.700Z,19.30
2023-02-21T16:16:14.858Z,20.67
2023-02-21T16:18:42.121Z,22.50
2023-02-21T16:21:26.018Z,25.80
2023-02-21T16:23:53.438Z,27.27
2023-02-21T16:26:27.384Z,26.30
2023-02-21T16:28:58.711Z,29.25
2023-02-21T16:31:32.473Z,23.55
2023-02-21T16:33:59.916Z,24.65
2023-02-21T16:36:29.902Z,29.38
2023-02-21T16:38:58.520Z,29.50
2023-02-21T16:41:28.743Z,47.13
2023-02-21T16:43:55.713Z,45.60
2023-02-21T16:46:30.166Z,57.75
2023-02-21T16:48:59.106Z,55.17
2023-02-21T16:51:33.782Z,93.22
2023-02-21T16:54:01.733Z,113.90
2023-02-21T16:56:29.132Z,218.55
2023-02-21T16:58:57.282Z,228.95
2023-02-21T17:01:30.263Z,232.27
2023-02-21T17:03:57.521Z,208.55
2023-02-21T17:06:27.330Z,139.98
2023-02-21T17:08:54.698Z,203.43
2023-02-21T17:11:21.834Z,223.48
2023-02-21T17:13:48.854Z,188.82
2023-02-21T17:16:16.193Z,220.43
2023-02-21T17:18:46.313Z,160.98
2023-02-21T17:21:13.699Z,181.57
2023-02-21T17:23:41.966Z,170.60
2023-02-21T17:26:08.951Z,164.05
2023-02-21T17:28:39.174Z,195.52
2023-02-21T17:31:06.481Z,204.50
2023-02-21T17:33:35.725Z,181.88
2023-02-21T17:36:03.083Z,193.45
2023-02-21T17:38:30.686Z,181.93
2023-02-21T17:40:57.890Z,183.70
2023-02-21T17:43:25.430Z,189.70
2023-02-21T17:45:52.745Z,179.68
2023-02-21T17:48:20.148Z,154.63
2023-02-21T17:50:47.150Z,159.13
2023-02-21T17:53:14.439Z,139.18
2023-02-21T17:55:41.505Z,123.50
2023-02-21T17:58:09.962Z,112.28
2023-02-21T18:00:37.183Z,96.43
2023-02-21T18:03:06.954Z,138.90
2023-02-21T18:05:34.237Z,148.25
2023-02-21T18:08:01.379Z,64.50
2023-02-21T18:10:28.493Z,72.00
2023-02-21T18:12:56.208Z,49.38
2023-02-21T18:15:27.769Z,88.13
2023-02-21T18:17:55.183Z,137.98
2023-02-21T18:20:22.582Z,137.77
2023-02-21T18:22:49.744Z,106.72
2023-02-21T18:25:18.583Z,84.82
2023-02-21T18:27:45.807Z,90.40
2023-02-21T18:30:13.336Z,160.18
2023-02-21T18:32:41.029Z,151.95
2023-02-21T18:35:08.164Z,101.80
2023-02-21T18:37:35.984Z,85.47
2023-02-21T18:40:06.077Z,43.15
2023-02-21T18:42:33.515Z,81.55
2023-02-21T18:45:00.926Z,38.22
2023-02-21T18:47:28.540Z,40.78
2023-02-21T18:49:58.884Z,27.77
2023-02-21T18:52:26.661Z,30.48
2023-02-21T18:54:54.777Z,35.90
2023-02-21T18:57:23.382Z,32.03
2023-02-21T18:59:50.802Z,36.60
2023-02-21T19:02:19.194Z,38.08
2023-02-21T19:04:47.019Z,39.63
2023-02-21T19:07:21.433Z,41.63
2023-02-21T19:09:50.491Z,35.33
2023-02-21T19:12:17.761Z,31.90
2023-02-21T19:14:45.189Z,33.50
2023-02-21T19:17:12.346Z,38.65
2023-02-21T19:19:39.717Z,33.95
2023-02-21T19:22:07.482Z,32.33
2023-02-21T19:24:34.533Z,32.63
2023-02-21T19:27:02.678Z,33.30
2023-02-21T19:29:29.794Z,48.72
2023-02-21T19:31:57.475Z,69.35
2023-02-21T19:34:24.841Z,49.63
2023-02-21T19:36:52.031Z,47.65
2023-02-21T19:39:19.188Z,47.10
2023-02-21T19:41:47.889Z,51.65
2023-02-21T19:44:15.788Z,47.35
2023-02-21T19:46:43.596Z,49.15
2023-02-21T19:49:18.417Z,44.28
2023-02-21T19:51:49.488Z,44.63
2023-02-21T19:54:19.440Z,46.38
2023-02-21T19:56:47.355Z,36.17
2023-02-21T19:59:14.983Z,67.35
2023-02-21T20:01:42.719Z,52.85
2023-02-21T20:04:10.308Z,69.57
2023-02-21T20:06:38.064Z,63.72
2023-02-21T20:09:07.481Z,58.53
2023-02-21T20:11:35.915Z,85.97
2023-02-21T20:14:03.121Z,90.70
2023-02-21T20:16:30.384Z,88.97
2023-02-21T20:18:58.190Z,69.22
2023-02-21T20:21:28.136Z,66.32
2023-02-21T20:23:55.656Z,57.88
2023-02-21T20:26:25.767Z,46.42
2023-02-21T20:28:53.798Z,56.97
2023-02-21T20:31:26.585Z,51.35
2023-02-21T20:33:55.664Z,49.92
2023-02-21T20:36:31.484Z,56.50
2023-02-21T20:38:58.620Z,73.05
2023-02-21T20:41:31.257Z,78.15
2023-02-21T20:43:59.868Z,74.38
2023-02-21T20:46:27.857Z,61.83
2023-02-21T20:48:58.764Z,130.52
2023-02-21T20:51:35.209Z,37.05
2023-02-21T20:54:04.973Z,31.40
2023-02-21T20:56:37.293Z,31.98
2023-02-21T20:59:08.055Z,27.67
2023-02-21T21:01:37.877Z,27.75
2023-02-21T21:04:10.635Z,25.80
2023-02-21T21:06:37.878Z,21.40
2023-02-21T21:09:04.931Z,38.47
2023-02-21T21:11:32.999Z,44.17
2023-02-21T21:14:00.945Z,97.50
2023-02-21T21:16:28.280Z,78.20
2023-02-21T21:18:57.677Z,85.18
2023-02-21T21:21:32.524Z,116.18
2023-02-21T21:24:00.753Z,119.75
2023-02-21T21:26:28.346Z,97.65
2023-02-21T21:28:55.645Z,143.13
2023-02-21T21:31:23.856Z,95.00
2023-02-21T21:33:51.069Z,78.57
2023-02-21T21:36:19.758Z,94.15
2023-02-21T21:38:47.309Z,91.78
2023-02-21T21:41:15.385Z,78.05
2023-02-21T21:43:44.840Z,72.93
2023-02-21T21:46:13.875Z,60.80
2023-02-21T21:48:44.738Z,72.32
2023-02-21T21:51:14.465Z,78.38
2023-02-21T21:53:41.874Z,81.25
2023-02-21T21:56:11.495Z,83.05
2023-02-21T21:58:38.589Z,87.90
2023-02-21T22:01:05.813Z,89.95
2023-02-21T22:03:34.881Z,92.57
2023-02-21T22:06:02.080Z,82.18
2023-02-21T22:08:29.653Z,76.30
2023-02-21T22:11:00.397Z,72.93
2023-02-21T22:13:29.667Z,58.88
2023-02-21T22:15:56.822Z,56.08
2023-02-21T22:18:24.361Z,56.78
2023-02-21T22:20:51.376Z,50.58
2023-02-21T22:23:21.492Z,68.30
2023-02-21T22:25:49.109Z,59.88
2023-02-21T22:28:18.837Z,59.85
2023-02-21T22:30:46.498Z,45.40
2023-02-21T22:33:18.920Z,49.20
2023-02-21T22:35:47.476Z,53.28
2023-02-21T22:38:17.550Z,60.25
2023-02-21T22:40:45.062Z,61.42
2023-02-21T22:43:13.952Z,59.08
2023-02-21T22:45:44.528Z,55.70
2023-02-21T22:48:11.966Z,51.30
2023-02-21T22:50:39.928Z,62.35
2023-02-21T22:53:09.670Z,56.70
2023-02-21T22:55:39.748Z,66.18
2023-02-21T22:58:09.934Z,52.50
2023-02-21T23:00:38.244Z,138.60
2023-02-21T23:03:13.375Z,49.45
2023-02-21T23:05:49.693Z,49.95
2023-02-21T23:08:23.009Z,54.67
2023-02-21T23:10:51.794Z,62.13
2023-02-21T23:13:23.475Z,78.10
2023-02-21T23:15:51.479Z,118.03
2023-02-21T23:18:23.528Z,126.50
2023-02-21T23:20:55.719Z,80.72
2023-02-21T23:23:26.698Z,211.10
2023-02-21T23:26:01.430Z,207.77
2023-02-21T23:28:31.812Z,67.10
2023-02-21T23:30:58.804Z,99.97
2023-02-21T23:33:28.570Z,115.97
2023-02-21T23:35:57.758Z,109.60
2023-02-21T23:38:28.401Z,186.30
2023-02-21T23:40:58.270Z,125.95
2023-02-21T23:43:29.790Z,107.68
2023-02-21T23:45:59.076Z,121.80
2023-02-21T23:48:26.971Z,120.75
2023-02-21T23:50:58.172Z,114.60
2023-02-21T23:53:28.615Z,120.82
2023-02-21T23:55:57.953Z,121.72
2023-02-21T23:58:28.075Z,118.13
